Time;durP1;ratioP1;P1;durP2;ratioP2;P2;SDS_P1;SDS_P2;PMS_P1;PMS_P2;Temp;Humidity;BMP_temperature;BMP_pressure;BME280_temperature;BME280_humidity;BME280_pressure;Samples;Min_cycle;Max_cycle;Signal;HPM_P1;HPM_P2
2021/12/09 00:01:04;;;;;;;5.40;2.90;;;17.70;45.80;;;;;;5037226;28;20219;-64
2021/12/09 00:03:32;;;;;;;4.22;3.17;;;17.70;45.80;;;;;;5055274;28;20230;-67
2021/12/09 00:05:59;;;;;;;3.15;2.80;;;17.70;46.00;;;;;;5053570;28;20215;-67
2021/12/09 00:08:28;;;;;;;3.85;3.33;;;17.70;46.10;;;;;;5053984;28;20203;-68
2021/12/09 00:10:56;;;;;;;3.53;3.00;;;17.60;45.90;;;;;;5054975;28;20219;-67
2021/12/09 00:13:23;;;;;;;4.30;3.15;;;17.60;46.00;;;;;;5054203;28;20191;-67
2021/12/09 00:15:50;;;;;;;3.25;2.95;;;17.60;45.90;;;;;;5054879;28;20617;-67
2021/12/09 00:18:18;;;;;;;3.90;3.28;;;17.60;45.80;;;;;;5054530;28;20678;-68
2021/12/09 00:20:45;;;;;;;3.33;2.60;;;17.60;45.70;;;;;;5054492;28;20212;-67
2021/12/09 00:23:12;;;;;;;3.70;2.90;;;17.60;46.10;;;;;;5053631;28;20214;-67
2021/12/09 00:25:39;;;;;;;3.08;2.78;;;17.50;45.70;;;;;;5036687;28;20191;-66
2021/12/09 00:28:07;;;;;;;3.67;2.90;;;17.60;45.80;;;;;;5036688;28;20199;-68
2021/12/09 00:30:35;;;;;;;3.67;2.47;;;17.50;45.80;;;;;;5054552;28;20198;-67
2021/12/09 00:33:02;;;;;;;3.22;2.55;;;17.50;45.80;;;;;;5053075;28;20198;-67
2021/12/09 00:35:33;;;;;;;2.75;2.47;;;17.50;45.80;;;;;;5054628;28;20274;-68
2021/12/09 00:38:04;;;;;;;3.35;2.58;;;17.40;45.70;;;;;;5036613;28;20245;-67
2021/12/09 00:40:31;;;;;;;3.08;2.42;;;17.40;45.70;;;;;;5053149;28;20222;-68
2021/12/09 00:42:58;;;;;;;2.80;2.47;;;17.40;46.00;;;;;;5053081;28;20199;-67
2021/12/09 00:45:26;;;;;;;3.38;2.42;;;17.40;45.90;;;;;;5054534;28;20194;-67
2021/12/09 00:47:53;;;;;;;3.33;2.50;;;17.40;46.10;;;;;;5052682;28;20219;-68
2021/12/09 00:50:21;;;;;;;3.53;2.42;;;17.40;45.80;;;;;;5052944;28;20618;-67
2021/12/09 00:52:48;;;;;;;3.13;2.65;;;17.40;45.90;;;;;;5052756;28;20257;-68
2021/12/09 00:55:15;;;;;;;2.70;2.40;;;17.30;45.80;;;;;;5036278;28;20195;-67
2021/12/09 00:57:42;;;;;;;2.78;2.15;;;17.30;45.70;;;;;;5053914;28;20269;-67
2021/12/09 01:00:11;;;;;;;2.70;2.38;;;17.30;45.80;;;;;;5035769;28;20699;-68
2021/12/09 01:02:39;;;;;;;3.55;2.58;;;17.30;45.80;;;;;;5035828;28;20199;-68
2021/12/09 01:05:07;;;;;;;2.40;2.20;;;17.30;45.60;;;;;;5035878;28;20191;-67
2021/12/09 01:07:34;;;;;;;2.63;2.38;;;17.30;45.70;;;;;;5035716;28;20803;-68
2021/12/09 01:10:01;;;;;;;2.60;2.28;;;17.20;45.60;;;;;;5053706;28;20276;-65
2021/12/09 01:12:28;;;;;;;2.53;2.30;;;17.20;45.60;;;;;;5052538;28;20199;-65
2021/12/09 01:14:55;;;;;;;4.43;2.30;;;17.20;45.80;;;;;;5052547;28;20202;-65
2021/12/09 01:17:22;;;;;;;2.60;2.22;;;17.20;45.70;;;;;;5053555;28;20214;-64
2021/12/09 01:19:52;;;;;;;4.35;2.50;;;17.20;45.60;;;;;;5035662;28;20196;-65
2021/12/09 01:22:19;;;;;;;3.15;2.33;;;17.20;45.70;;;;;;5052415;28;20215;-65
2021/12/09 01:24:47;;;;;;;2.75;2.25;;;17.20;45.80;;;;;;5052074;28;20195;-65
2021/12/09 01:27:13;;;;;;;4.00;2.30;;;17.10;45.70;;;;;;5036042;28;20247;-65
2021/12/09 01:29:50;;;;;;;3.22;2.28;;;17.10;45.80;;;;;;5053136;28;20200;-65
2021/12/09 01:32:24;;;;;;;2.40;2.20;;;17.10;45.80;;;;;;5035567;28;20195;-65
2021/12/09 01:34:52;;;;;;;3.13;2.40;;;17.10;45.80;;;;;;5053671;28;20184;-66
2021/12/09 01:37:19;;;;;;;3.20;2.47;;;17.10;45.80;;;;;;5035653;28;20227;-65
2021/12/09 01:39:46;;;;;;;2.47;2.25;;;17.10;45.80;;;;;;5035875;28;20196;-65
2021/12/09 01:42:13;;;;;;;2.60;2.17;;;17.10;45.80;;;;;;5052303;28;20242;-65
2021/12/09 01:44:40;;;;;;;2.42;2.22;;;17.10;45.90;;;;;;5056388;28;20230;-65
2021/12/09 01:47:07;;;;;;;2.78;2.22;;;17.10;45.70;;;;;;5054027;28;20207;-65
2021/12/09 01:49:34;;;;;;;2.70;2.17;;;17.00;45.70;;;;;;5052718;28;20221;-65
2021/12/09 01:52:03;;;;;;;2.88;2.25;;;17.00;45.80;;;;;;5053153;28;20195;-65
2021/12/09 01:54:30;;;;;;;2.40;2.25;;;17.00;45.70;;;;;;5035570;28;20202;-65
2021/12/09 01:56:57;;;;;;;2.10;1.90;;;17.00;45.60;;;;;;5053644;28;20298;-64
2021/12/09 01:59:24;;;;;;;2.38;2.00;;;17.00;45.60;;;;;;5052191;28;20199;-64
2021/12/09 02:01:51;;;;;;;2.60;2.15;;;17.00;45.60;;;;;;5035403;28;20211;-66
2021/12/09 02:04:18;;;;;;;3.92;2.20;;;17.00;45.60;;;;;;5052041;28;20199;-65
2021/12/09 02:06:45;;;;;;;2.70;2.15;;;17.00;45.70;;;;;;5051870;28;20223;-65
2021/12/09 02:09:15;;;;;;;2.35;2.15;;;17.00;45.70;;;;;;5052139;28;20203;-65
2021/12/09 02:11:42;;;;;;;2.20;2.00;;;17.00;45.60;;;;;;5035182;28;20197;-65
2021/12/09 02:14:09;;;;;;;2.35;2.10;;;16.90;45.60;;;;;;5053164;28;20195;-65
2021/12/09 02:16:36;;;;;;;2.67;2.20;;;16.90;45.70;;;;;;5034939;28;20241;-65
2021/12/09 02:19:04;;;;;;;2.15;1.95;;;16.90;45.60;;;;;;5052893;28;20213;-65
2021/12/09 02:21:33;;;;;;;2.30;2.08;;;16.90;45.70;;;;;;5052833;28;20218;-65
2021/12/09 02:24:01;;;;;;;2.70;2.05;;;16.90;45.70;;;;;;5051582;28;20200;-65
2021/12/09 02:28:59;;;;;;;2.97;2.30;;;16.90;45.70;;;;;;5029554;28;20212;-66
2021/12/09 02:31:26;;;;;;;2.40;2.20;;;16.90;45.70;;;;;;5014892;28;20192;-66
2021/12/09 02:33:53;;;;;;;2.53;2.33;;;16.80;45.50;;;;;;5032377;28;20196;-66
2021/12/09 02:36:20;;;;;;;2.40;2.15;;;16.80;45.60;;;;;;5033753;28;20274;-66
2021/12/09 02:38:50;;;;;;;2.50;2.30;;;16.80;45.70;;;;;;5056091;28;20207;-66
2021/12/09 02:41:18;;;;;;;2.42;2.22;;;16.80;45.80;;;;;;5038416;28;20710;-66
2021/12/09 02:43:49;;;;;;;2.00;1.90;;;16.80;45.70;;;;;;5056337;28;20194;-66
2021/12/09 02:46:16;;;;;;;2.50;2.15;;;16.80;45.80;;;;;;5055095;28;20198;-67
2021/12/09 02:48:43;;;;;;;2.10;1.90;;;16.80;45.90;;;;;;5055926;28;20203;-66
2021/12/09 02:51:10;;;;;;;1.83;1.73;;;16.80;45.90;;;;;;5054810;28;20192;-66
2021/12/09 02:53:37;;;;;;;3.53;1.92;;;16.80;45.90;;;;;;5056140;28;20188;-67
2021/12/09 02:56:06;;;;;;;2.10;1.90;;;16.70;45.70;;;;;;5038487;28;20199;-66
2021/12/09 02:58:33;;;;;;;2.05;1.83;;;16.70;45.80;;;;;;5054738;28;20227;-66
2021/12/09 03:01:01;;;;;;;2.70;2.00;;;16.70;45.80;;;;;;5054893;28;20774;-66
2021/12/09 03:03:28;;;;;;;2.33;2.10;;;16.70;45.80;;;;;;5054827;28;20191;-66
2021/12/09 03:05:56;;;;;;;1.90;1.70;;;16.70;45.70;;;;;;5055757;28;20191;-66
2021/12/09 03:08:36;;;;;;;2.28;2.10;;;16.70;45.80;;;;;;5054282;28;20227;-66
2021/12/09 03:11:07;;;;;;;2.83;2.00;;;16.70;45.80;;;;;;5055741;28;20195;-67
2021/12/09 03:13:34;;;;;;;2.58;2.30;;;16.70;45.70;;;;;;5054734;28;20206;-67
2021/12/09 03:16:01;;;;;;;2.97;2.42;;;16.60;45.80;;;;;;5054221;28;20206;-68
2021/12/09 03:18:28;;;;;;;2.20;2.03;;;16.70;45.80;;;;;;5054087;28;20310;-67
2021/12/09 03:20:55;;;;;;;2.30;2.10;;;16.70;45.80;;;;;;5037440;28;20314;-67
2021/12/09 03:23:23;;;;;;;2.60;2.40;;;16.60;45.80;;;;;;5037456;28;20206;-67
2021/12/09 03:25:50;;;;;;;2.30;2.10;;;16.60;45.80;;;;;;5055384;28;20270;-68
2021/12/09 03:28:19;;;;;;;3.25;2.38;;;16.60;46.30;;;;;;5053922;28;20289;-67
2021/12/09 03:30:46;;;;;;;2.40;2.20;;;16.60;45.70;;;;;;5054015;28;20210;-67
2021/12/09 03:33:13;;;;;;;2.17;2.00;;;16.60;45.70;;;;;;5055293;28;20223;-67
2021/12/09 03:35:40;;;;;;;2.58;2.30;;;16.60;45.70;;;;;;5054426;28;20210;-68
2021/12/09 03:38:07;;;;;;;2.50;2.30;;;16.60;45.70;;;;;;5055386;28;20515;-67
2021/12/09 03:40:34;;;;;;;3.10;2.20;;;16.60;45.80;;;;;;5037297;28;20651;-67
2021/12/09 03:43:01;;;;;;;2.60;2.40;;;16.60;45.70;;;;;;5053646;28;20223;-67
2021/12/09 03:45:29;;;;;;;3.55;2.10;;;16.50;45.60;;;;;;5053838;28;20734;-67
2021/12/09 03:47:56;;;;;;;2.30;2.10;;;16.60;46.30;;;;;;5052510;28;20220;-67
2021/12/09 03:50:23;;;;;;;2.45;2.20;;;16.60;45.60;;;;;;5054865;28;20195;-68
2021/12/09 03:52:50;;;;;;;2.40;2.20;;;16.50;45.70;;;;;;5053661;28;20191;-68
2021/12/09 03:55:17;;;;;;;2.67;2.13;;;16.50;45.60;;;;;;5054786;28;20559;-68
2021/12/09 03:57:45;;;;;;;2.63;2.42;;;16.50;45.70;;;;;;5053761;28;20713;-68
2021/12/09 04:00:13;;;;;;;3.10;2.30;;;16.50;45.60;;;;;;5036884;28;20191;-67
2021/12/09 04:02:41;;;;;;;3.00;2.00;;;16.50;45.60;;;;;;5053473;28;20225;-68
2021/12/09 04:05:09;;;;;;;2.95;2.20;;;16.50;45.70;;;;;;5053305;28;20659;-68
2021/12/09 04:07:36;;;;;;;3.55;2.40;;;16.50;45.70;;;;;;5053302;28;20223;-68
2021/12/09 04:10:04;;;;;;;3.17;2.33;;;16.50;45.70;;;;;;5053218;28;20294;-67
2021/12/09 04:12:31;;;;;;;2.15;1.95;;;16.50;45.80;;;;;;5053160;28;20294;-68
2021/12/09 04:14:58;;;;;;;2.13;1.90;;;16.50;45.90;;;;;;5053118;28;20203;-68
2021/12/09 04:17:25;;;;;;;2.35;2.13;;;16.50;46.00;;;;;;5054612;28;20584;-67
2021/12/09 04:19:53;;;;;;;2.30;2.10;;;16.50;45.90;;;;;;5036487;28;20195;-67
2021/12/09 04:22:21;;;;;;;2.95;2.40;;;16.50;45.90;;;;;;5053116;28;20222;-68
2021/12/09 04:24:48;;;;;;;2.72;2.20;;;16.50;45.80;;;;;;5054291;28;20201;-68
2021/12/09 04:27:15;;;;;;;3.13;2.30;;;16.50;45.80;;;;;;5052783;28;20234;-67
2021/12/09 04:29:42;;;;;;;3.65;2.20;;;16.50;45.70;;;;;;5054388;28;20191;-67
2021/12/09 04:32:09;;;;;;;3.20;2.17;;;16.50;45.60;;;;;;5053118;28;20187;-68
2021/12/09 04:34:36;;;;;;;3.67;2.45;;;16.50;45.60;;;;;;5053707;28;20205;-68
2021/12/09 04:37:05;;;;;;;2.53;2.28;;;16.50;45.50;;;;;;5036217;28;20223;-68
2021/12/09 04:39:32;;;;;;;2.78;2.47;;;16.50;45.40;;;;;;5054036;28;20257;-68
2021/12/09 04:41:59;;;;;;;3.83;2.30;;;16.50;45.40;;;;;;5052411;28;20219;-68
2021/12/09 04:44:26;;;;;;;2.53;2.30;;;16.60;45.40;;;;;;5052628;28;20199;-68
2021/12/09 04:46:54;;;;;;;3.15;2.17;;;16.50;45.20;;;;;;5052488;28;20215;-68
2021/12/09 04:49:21;;;;;;;3.05;2.20;;;16.60;45.30;;;;;;5035846;28;20286;-67
2021/12/09 04:51:48;;;;;;;5.03;2.35;;;16.60;45.30;;;;;;5035842;28;20207;-67
2021/12/09 04:54:17;;;;;;;3.20;2.50;;;16.60;45.80;;;;;;5052455;28;20302;-68
2021/12/09 04:56:44;;;;;;;2.65;2.10;;;16.70;45.20;;;;;;5052317;28;20711;-67
2021/12/09 04:59:11;;;;;;;2.53;2.30;;;16.70;45.10;;;;;;5052330;28;20195;-67
2021/12/09 05:01:38;;;;;;;3.22;2.30;;;16.60;45.00;;;;;;5052121;28;20218;-67
2021/12/09 05:04:05;;;;;;;2.72;2.30;;;16.70;45.10;;;;;;5052142;28;20206;-68
2021/12/09 05:06:32;;;;;;;2.38;1.90;;;16.70;45.00;;;;;;5052145;28;20674;-67
2021/12/09 05:09:05;;;;;;;2.97;2.17;;;16.70;45.00;;;;;;5035523;28;20237;-67
2021/12/09 05:11:48;;;;;;;2.10;1.90;;;16.70;45.10;;;;;;5035526;28;20230;-68
2021/12/09 05:14:15;;;;;;;2.08;1.95;;;16.70;45.10;;;;;;5035443;28;20199;-67
2021/12/09 05:16:42;;;;;;;2.40;1.92;;;16.70;45.00;;;;;;5035242;28;20203;-68
2021/12/09 05:19:09;;;;;;;2.13;1.92;;;16.70;45.00;;;;;;5035322;28;20204;-67
2021/12/09 05:21:39;;;;;;;2.65;2.10;;;16.70;45.20;;;;;;5053039;28;20203;-67
2021/12/09 05:24:06;;;;;;;2.60;1.90;;;16.80;45.00;;;;;;5035624;28;20202;-68
2021/12/09 05:26:44;;;;;;;2.35;2.15;;;16.80;45.00;;;;;;5053041;28;20188;-67
2021/12/09 05:29:10;;;;;;;2.20;1.98;;;16.80;44.80;;;;;;5035128;28;20678;-67
2021/12/09 05:34:22;;;;;;;1.90;1.77;;;16.80;44.70;;;;;;5052029;28;20192;-67
2021/12/09 05:36:49;;;;;;;1.77;1.67;;;16.90;44.80;;;;;;5053070;28;20281;-67
2021/12/09 05:39:17;;;;;;;2.35;1.90;;;16.90;44.70;;;;;;5053025;28;20187;-67
2021/12/09 05:41:45;;;;;;;2.67;2.35;;;16.90;44.60;;;;;;5051490;28;20223;-67
2021/12/09 05:44:13;;;;;;;2.83;2.05;;;16.90;44.60;;;;;;5052763;28;20198;-67
2021/12/09 05:46:43;;;;;;;2.95;2.20;;;16.90;44.50;;;;;;5034883;28;20615;-67
2021/12/09 05:49:10;;;;;;;2.63;2.00;;;16.90;45.10;;;;;;5051424;28;20291;-67
2021/12/09 05:51:38;;;;;;;2.72;2.13;;;17.00;44.50;;;;;;5051570;28;20257;-67
2021/12/09 05:54:05;;;;;;;2.45;2.03;;;17.00;44.50;;;;;;5052586;28;20191;-67
2021/12/09 05:56:32;;;;;;;3.20;2.22;;;17.00;44.40;;;;;;5051395;28;20195;-67
2021/12/09 05:59:01;;;;;;;2.10;1.90;;;17.00;44.30;;;;;;5051503;28;20278;-67
2021/12/09 06:01:28;;;;;;;2.47;2.20;;;17.00;44.30;;;;;;5034566;28;20199;-67
2021/12/09 06:03:55;;;;;;;2.40;2.15;;;17.10;44.30;;;;;;5034805;28;20214;-66
2021/12/09 06:06:22;;;;;;;2.67;2.00;;;17.10;44.20;;;;;;5052685;28;20195;-67
2021/12/09 06:08:50;;;;;;;2.22;2.00;;;17.10;44.20;;;;;;5052598;28;20283;-67
2021/12/09 06:13:46;;;;;;;2.17;1.98;;;17.10;44.00;;;;;;5023468;28;20595;-67
2021/12/09 06:16:15;;;;;;;3.45;1.80;;;17.10;43.70;;;;;;5030051;28;20200;-66
2021/12/09 06:18:42;;;;;;;2.55;2.00;;;17.20;44.10;;;;;;5059430;28;20215;-66
2021/12/09 06:21:09;;;;;;;5.43;2.15;;;17.20;44.10;;;;;;5046443;28;20200;-66
2021/12/09 06:23:36;;;;;;;3.55;1.98;;;17.20;44.50;;;;;;5044579;28;20267;-66
2021/12/09 06:26:05;;;;;;;2.60;1.77;;;17.20;45.20;;;;;;5251082;22;20233;-67
2021/12/09 06:28:32;;;;;;;2.60;2.08;;;17.20;44.50;;;;;;5105166;22;20230;-67
2021/12/09 06:30:59;;;;;;;3.38;2.20;;;17.30;44.60;;;;;;5076243;28;20209;-67
2021/12/09 06:33:28;;;;;;;2.38;2.00;;;17.30;44.50;;;;;;5074896;28;20234;-67
2021/12/09 06:35:55;;;;;;;1.98;1.80;;;17.30;44.50;;;;;;5075500;28;20324;-67
2021/12/09 06:38:22;;;;;;;2.25;1.80;;;17.30;44.90;;;;;;5075331;28;20303;-67
2021/12/09 06:40:50;;;;;;;2.70;2.08;;;17.40;44.30;;;;;;5075045;28;20194;-67
2021/12/09 06:43:16;;;;;;;2.15;1.95;;;17.30;44.30;;;;;;5075096;28;20210;-67
2021/12/09 06:45:44;;;;;;;3.88;2.10;;;17.30;44.30;;;;;;5075265;28;20209;-67
2021/12/09 06:48:12;;;;;;;2.47;2.03;;;17.30;44.30;;;;;;5075247;28;20306;-67
2021/12/09 06:50:41;;;;;;;2.78;2.13;;;17.30;44.20;;;;;;5075673;28;20531;-67
2021/12/09 06:53:11;;;;;;;3.45;2.08;;;17.40;44.30;;;;;;5076253;28;20187;-67
2021/12/09 06:55:38;;;;;;;3.10;2.20;;;17.40;44.30;;;;;;5076050;28;20233;-67
2021/12/09 06:58:06;;;;;;;2.40;2.20;;;17.40;44.00;;;;;;5076106;28;20264;-67
2021/12/09 07:00:33;;;;;;;1.90;1.80;;;17.40;44.10;;;;;;5076138;28;20686;-67
2021/12/09 07:03:01;;;;;;;2.00;1.88;;;17.40;44.20;;;;;;5074873;28;20221;-67
2021/12/09 07:05:29;;;;;;;2.95;1.85;;;17.40;44.20;;;;;;5076263;28;20197;-67
2021/12/09 07:07:57;;;;;;;3.25;2.38;;;17.40;44.00;;;;;;5075291;28;20214;-67
2021/12/09 07:10:25;;;;;;;1.98;1.80;;;17.40;44.10;;;;;;5075009;28;20228;-67
2021/12/09 07:12:52;;;;;;;2.42;1.83;;;17.40;43.90;;;;;;5075248;28;20293;-67
2021/12/09 07:15:19;;;;;;;3.22;1.80;;;17.40;43.70;;;;;;5075660;28;20199;-67
2021/12/09 07:17:46;;;;;;;2.63;1.90;;;17.30;43.60;;;;;;5075611;28;20285;-67
2021/12/09 07:20:15;;;;;;;2.50;2.13;;;17.40;43.70;;;;;;5075349;28;20266;-67
2021/12/09 07:22:44;;;;;;;2.72;2.05;;;17.40;43.70;;;;;;5113722;22;20318;-66
2021/12/09 07:25:13;;;;;;;2.03;1.92;;;17.30;43.60;;;;;;5074919;28;20187;-67
2021/12/09 07:27:40;;;;;;;2.08;1.90;;;17.40;43.70;;;;;;5076382;28;20215;-67
2021/12/09 07:30:08;;;;;;;2.25;1.90;;;17.40;43.70;;;;;;5074907;28;20191;-67
2021/12/09 07:32:35;;;;;;;2.97;1.90;;;17.40;43.70;;;;;;5074785;28;20227;-67
2021/12/09 07:35:02;;;;;;;2.42;2.10;;;17.40;43.70;;;;;;5074769;28;20191;-69
2021/12/09 07:37:29;;;;;;;3.30;1.90;;;17.30;43.60;;;;;;5075061;28;20229;-67
2021/12/09 07:39:56;;;;;;;1.98;1.75;;;17.40;43.70;;;;;;5074802;28;20249;-67
2021/12/09 07:42:25;;;;;;;2.58;2.00;;;17.30;43.60;;;;;;5074360;28;20230;-67
2021/12/09 07:44:53;;;;;;;3.03;2.13;;;17.40;43.60;;;;;;5109549;22;20253;-54
2021/12/09 07:47:20;;;;;;;2.05;1.85;;;17.40;43.60;;;;;;5075914;28;20218;-54
2021/12/09 07:49:48;;;;;;;4.00;1.88;;;17.40;43.60;;;;;;5074222;28;20268;-54
2021/12/09 07:52:15;;;;;;;2.25;2.00;;;17.40;43.60;;;;;;5074722;28;20191;-54
2021/12/09 07:54:42;;;;;;;2.13;1.92;;;17.40;43.60;;;;;;5075527;28;20198;-54
2021/12/09 07:57:10;;;;;;;2.42;1.80;;;17.40;43.60;;;;;;5073995;28;20195;-52
2021/12/09 07:59:39;;;;;;;1.75;1.60;;;17.40;43.60;;;;;;5075246;28;20241;-52
2021/12/09 08:02:07;;;;;;;2.90;1.98;;;17.40;43.60;;;;;;5073749;28;20202;-52
2021/12/09 08:04:35;;;;;;;2.20;2.00;;;17.40;43.60;;;;;;5075633;28;20273;-52
2021/12/09 08:07:02;;;;;;;2.83;2.30;;;17.40;43.60;;;;;;5075150;28;20190;-52
2021/12/09 08:09:29;;;;;;;2.53;2.05;;;17.40;43.60;;;;;;5074951;28;20214;-52
2021/12/09 08:11:56;;;;;;;2.40;2.20;;;17.40;43.40;;;;;;5075483;28;20237;-52
2021/12/09 08:14:23;;;;;;;2.42;2.17;;;17.40;43.30;;;;;;5073724;28;20191;-53
2021/12/09 08:17:08;;;;;;;2.22;2.03;;;17.40;43.30;;;;;;5074005;28;20203;-53
2021/12/09 08:19:35;;;;;;;1.95;1.80;;;17.50;43.30;;;;;;5075610;28;20722;-54
2021/12/09 08:22:02;;;;;;;2.47;2.05;;;17.50;43.20;;;;;;5076288;28;20191;-53
2021/12/09 08:24:29;;;;;;;2.20;2.00;;;17.50;43.20;;;;;;5073920;28;20231;-53
2021/12/09 08:26:57;;;;;;;2.30;2.00;;;17.50;43.20;;;;;;5073361;28;20293;-53
2021/12/09 08:29:24;;;;;;;2.75;2.10;;;17.50;43.00;;;;;;5072926;28;20309;-53
2021/12/09 08:31:53;;;;;;;2.33;1.85;;;17.50;43.20;;;;;;5074700;28;20614;-53
2021/12/09 08:34:20;;;;;;;2.97;2.10;;;17.50;43.10;;;;;;5072358;28;20228;-53
2021/12/09 08:36:47;;;;;;;2.10;1.90;;;17.50;43.20;;;;;;5074130;28;20218;-53
2021/12/09 08:39:14;;;;;;;2.13;1.92;;;17.50;43.00;;;;;;5073996;28;20287;-54
2021/12/09 08:41:41;;;;;;;2.17;1.98;;;17.60;43.10;;;;;;5073272;28;20194;-53
2021/12/09 08:44:08;;;;;;;2.50;2.00;;;17.60;43.00;;;;;;5073765;28;20232;-53
2021/12/09 08:46:36;;;;;;;3.35;2.05;;;17.60;43.10;;;;;;5074108;28;20688;-53
2021/12/09 08:49:04;;;;;;;2.22;2.03;;;17.60;43.10;;;;;;5074094;28;20238;-52
2021/12/09 08:51:31;;;;;;;2.50;2.20;;;17.60;43.00;;;;;;5073846;28;20691;-52
2021/12/09 08:53:59;;;;;;;2.40;2.10;;;17.70;43.00;;;;;;5072498;28;20215;-53
2021/12/09 08:56:26;;;;;;;2.20;2.00;;;17.70;43.10;;;;;;5073570;28;20248;-53
2021/12/09 08:58:54;;;;;;;2.38;2.08;;;17.70;43.00;;;;;;5072251;28;20222;-52
2021/12/09 09:01:21;;;;;;;2.40;2.00;;;17.70;43.00;;;;;;5073443;28;20214;-53
2021/12/09 09:03:48;;;;;;;3.72;2.35;;;17.70;43.00;;;;;;5072199;28;20215;-53
2021/12/09 09:06:17;;;;;;;2.35;2.00;;;17.70;43.00;;;;;;5072212;28;20230;-53
2021/12/09 09:08:44;;;;;;;2.83;2.17;;;17.70;42.90;;;;;;5071971;28;20628;-52
2021/12/09 09:11:11;;;;;;;2.10;1.90;;;17.70;42.90;;;;;;5073780;28;20286;-52
2021/12/09 09:13:40;;;;;;;2.30;1.98;;;17.70;42.90;;;;;;5073218;28;20559;-53
2021/12/09 09:16:07;;;;;;;2.28;2.08;;;17.70;42.90;;;;;;5071953;28;20194;-53
2021/12/09 09:18:34;;;;;;;2.72;1.90;;;17.70;42.90;;;;;;5071800;28;20280;-52
2021/12/09 09:21:02;;;;;;;2.25;1.90;;;17.70;42.80;;;;;;5071916;28;20582;-52
2021/12/09 09:23:30;;;;;;;2.40;2.17;;;17.70;42.80;;;;;;5072858;28;20213;-53
2021/12/09 09:25:58;;;;;;;2.15;1.90;;;17.80;43.00;;;;;;5073112;28;20243;-53
2021/12/09 09:28:25;;;;;;;2.10;1.90;;;17.80;42.90;;;;;;5071552;28;20219;-53
2021/12/09 09:30:56;;;;;;;2.80;2.10;;;17.80;42.80;;;;;;5073118;28;20249;-54
2021/12/09 09:33:25;;;;;;;3.55;2.13;;;17.80;42.80;;;;;;5071729;28;20642;-53
2021/12/09 09:35:52;;;;;;;2.28;2.08;;;17.80;42.60;;;;;;5072808;28;20219;-53
2021/12/09 09:38:20;;;;;;;2.33;2.13;;;17.80;42.70;;;;;;5071733;28;20568;-53
2021/12/09 09:40:52;;;;;;;2.00;1.90;;;17.80;42.60;;;;;;5072985;28;20190;-53
2021/12/09 09:43:44;;;;;;;2.05;1.85;;;17.90;42.70;;;;;;5071681;28;20685;-53
2021/12/09 09:46:13;;;;;;;2.17;2.00;;;17.90;42.60;;;;;;5071820;28;20217;-53
2021/12/09 09:48:40;;;;;;;2.10;1.90;;;17.90;42.60;;;;;;5072871;28;20219;-53
2021/12/09 09:51:10;;;;;;;3.00;2.20;;;17.90;42.60;;;;;;5073073;28;20562;-53
2021/12/09 09:53:41;;;;;;;3.05;2.10;;;17.90;42.60;;;;;;5073168;28;20179;-54
2021/12/09 09:56:14;;;;;;;2.40;1.90;;;17.90;42.60;;;;;;5071357;28;20260;-52
2021/12/09 09:58:41;;;;;;;2.40;2.20;;;17.90;42.60;;;;;;5071873;28;20221;-53
2021/12/09 10:01:08;;;;;;;2.90;2.03;;;18.00;42.60;;;;;;5072938;28;20278;-53
2021/12/09 10:03:41;;;;;;;2.47;1.90;;;17.90;42.40;;;;;;5072489;28;20682;-53
2021/12/09 10:06:08;;;;;;;3.15;2.10;;;18.00;42.40;;;;;;5072734;28;20209;-53
2021/12/09 10:08:35;;;;;;;2.20;2.08;;;18.00;42.50;;;;;;5071539;28;20624;-53
2021/12/09 10:11:03;;;;;;;2.40;1.90;;;18.00;42.50;;;;;;5071534;28;20195;-53
2021/12/09 10:13:32;;;;;;;2.65;2.00;;;18.00;42.50;;;;;;5072842;28;20198;-53
2021/12/09 10:16:00;;;;;;;2.50;2.10;;;18.00;42.40;;;;;;5073244;28;20195;-53
2021/12/09 10:18:37;;;;;;;2.25;2.05;;;18.00;42.40;;;;;;5072637;28;20288;-53
2021/12/09 10:21:05;;;;;;;2.05;1.95;;;18.10;42.30;;;;;;5072580;28;20194;-52
2021/12/09 10:23:34;;;;;;;1.88;1.77;;;18.10;42.40;;;;;;5072743;28;20220;-53
2021/12/09 10:26:24;;;;;;;2.72;2.30;;;18.10;42.40;;;;;;5071426;28;20266;-52
2021/12/09 10:28:55;;;;;;;2.92;2.10;;;18.10;42.90;;;;;;5072586;28;20572;-53
2021/12/09 10:31:26;;;;;;;4.90;1.83;;;18.10;42.20;;;;;;5072452;28;20171;-52
2021/12/09 10:34:01;;;;;;;2.53;2.20;;;18.10;42.30;;;;;;5072267;28;20175;-53
2021/12/09 10:36:49;;;;;;;2.30;2.00;;;18.10;42.20;;;;;;5072511;28;20197;-54
2021/12/09 10:39:25;;;;;;;2.08;1.83;;;18.10;42.20;;;;;;5072421;28;20264;-54
2021/12/09 10:41:53;;;;;;;2.22;2.03;;;18.10;42.10;;;;;;5072659;28;20544;-54
2021/12/09 10:44:32;;;;;;;2.42;2.17;;;18.10;42.00;;;;;;5070989;28;20283;-54
2021/12/09 10:47:08;;;;;;;2.25;2.05;;;18.20;42.10;;;;;;5071515;28;20252;-54
2021/12/09 10:49:48;;;;;;;2.42;2.00;;;18.20;42.10;;;;;;5070765;28;20223;-54
2021/12/09 10:52:36;;;;;;;2.15;2.00;;;18.20;42.10;;;;;;5070855;28;20193;-54
2021/12/09 10:55:12;;;;;;;2.60;2.40;;;18.20;42.00;;;;;;5072509;28;20289;-54
2021/12/09 10:57:40;;;;;;;1.90;1.80;;;18.20;41.90;;;;;;5073979;28;20179;-54
2021/12/09 11:00:20;;;;;;;2.28;2.08;;;18.30;42.00;;;;;;5074722;28;20705;-54
2021/12/09 11:03:20;;;;;;;1.95;1.85;;;18.30;42.10;;;;;;5075997;28;20179;-54
2021/12/09 11:05:52;;;;;;;2.42;1.90;;;18.30;42.00;;;;;;5074412;28;20199;-53
2021/12/09 11:08:24;;;;;;;2.75;2.20;;;18.30;42.00;;;;;;5075746;28;20206;-54
2021/12/09 11:10:58;;;;;;;1.98;1.88;;;18.30;41.60;;;;;;5076359;28;20270;-54
2021/12/09 11:13:26;;;;;;;2.47;2.05;;;18.30;41.70;;;;;;5076031;28;20179;-54
2021/12/09 11:15:55;;;;;;;2.22;2.00;;;18.30;41.80;;;;;;5076459;28;20201;-54
2021/12/09 11:18:35;;;;;;;1.90;1.80;;;18.40;42.00;;;;;;5075258;28;20219;-54
2021/12/09 11:21:05;;;;;;;1.98;1.88;;;18.40;42.00;;;;;;5076929;28;20209;-54
2021/12/09 11:23:35;;;;;;;2.15;1.95;;;18.40;41.90;;;;;;5076237;28;20199;-55
2021/12/09 11:26:34;;;;;;;2.22;1.83;;;18.40;41.80;;;;;;5074433;28;20202;-54
2021/12/09 11:29:04;;;;;;;2.08;1.88;;;18.40;41.90;;;;;;5075482;28;20702;-53
2021/12/09 11:31:35;;;;;;;3.00;2.20;;;18.50;41.90;;;;;;5075463;28;20187;-54
2021/12/09 11:34:09;;;;;;;3.75;2.17;;;18.50;42.40;;;;;;5075402;28;20683;-53
2021/12/09 11:36:48;;;;;;;2.10;1.90;;;18.50;42.40;;;;;;5075714;28;20237;-54
2021/12/09 11:39:20;;;;;;;2.03;1.70;;;18.50;41.80;;;;;;5073899;28;20223;-54
2021/12/09 11:41:48;;;;;;;2.10;1.83;;;18.50;41.80;;;;;;5073952;28;20195;-54
2021/12/09 11:44:15;;;;;;;2.67;1.90;;;18.50;41.70;;;;;;5074996;28;20650;-53
2021/12/09 11:46:45;;;;;;;1.80;1.70;;;18.50;41.80;;;;;;5075046;28;20221;-55
2021/12/09 11:49:15;;;;;;;3.00;2.10;;;18.50;41.80;;;;;;5073733;28;20214;-53
2021/12/09 11:51:45;;;;;;;2.97;2.00;;;18.50;41.80;;;;;;5075015;28;20235;-53
2021/12/09 11:54:12;;;;;;;2.10;1.90;;;18.50;41.70;;;;;;5075080;28;20187;-53
2021/12/09 11:56:58;;;;;;;2.00;1.90;;;18.60;42.40;;;;;;5075428;28;20673;-53
2021/12/09 12:11:33;;;;;;;1.65;1.55;;;18.60;41.40;;;;;;5074812;28;20195;-54
2021/12/09 12:14:05;;;;;;;1.75;1.65;;;18.70;41.40;;;;;;5074331;28;20620;-54
2021/12/09 12:16:47;;;;;;;1.90;1.80;;;18.70;41.40;;;;;;5074534;28;20198;-54
2021/12/09 12:19:28;;;;;;;2.50;1.85;;;18.80;41.40;;;;;;5074765;28;20221;-54
2021/12/09 12:22:25;;;;;;;2.10;2.00;;;18.80;41.40;;;;;;5074906;28;20676;-54
2021/12/09 12:25:14;;;;;;;3.05;2.00;;;18.80;41.20;;;;;;5074742;28;20206;-54
2021/12/09 12:30:52;;;;;;;2.00;1.80;;;18.80;41.10;;;;;;5071423;28;20269;-54
2021/12/09 12:33:33;;;;;;;2.10;1.90;;;18.80;41.10;;;;;;5072679;28;20187;-54
2021/12/09 12:36:20;;;;;;;2.40;1.85;;;18.80;40.90;;;;;;5072917;28;20202;-54
2021/12/09 12:39:06;;;;;;;1.75;1.60;;;18.90;40.80;;;;;;5074036;28;20228;-54
2021/12/09 12:41:33;;;;;;;2.42;1.95;;;18.90;40.90;;;;;;5074046;28;20246;-54
2021/12/09 12:44:06;;;;;;;2.22;1.70;;;18.90;40.90;;;;;;5074111;28;20210;-54
2021/12/09 12:46:54;;;;;;;1.75;1.60;;;18.90;41.00;;;;;;5074071;28;20179;-55
2021/12/09 12:52:11;;;;;;;1.80;1.70;;;18.90;40.70;;;;;;5074111;28;20183;-54
2021/12/09 12:54:49;;;;;;;2.33;2.00;;;18.90;40.80;;;;;;5072742;28;20195;-53
2021/12/09 12:57:29;;;;;;;1.92;1.73;;;18.90;40.70;;;;;;5074430;28;20174;-55
2021/12/09 13:00:08;;;;;;;1.90;1.70;;;18.90;40.80;;;;;;5073228;28;20214;-55
2021/12/09 13:05:37;;;;;;;1.88;1.77;;;18.90;40.40;;;;;;5072373;28;20293;-55
2021/12/09 13:11:04;;;;;;;2.08;1.80;;;18.90;40.40;;;;;;5072086;28;20179;-54
2021/12/09 13:13:40;;;;;;;2.28;1.83;;;19.00;40.50;;;;;;5073438;28;20190;-54
2021/12/09 13:16:13;;;;;;;2.25;1.95;;;18.90;40.30;;;;;;5073503;28;20198;-55
2021/12/09 13:18:48;;;;;;;1.83;1.70;;;19.00;40.50;;;;;;5072918;28;20217;-55
2021/12/09 13:21:52;;;;;;;2.78;1.70;;;18.90;40.50;;;;;;5071484;28;20570;-55
2021/12/09 13:24:40;;;;;;;2.15;1.95;;;19.00;40.50;;;;;;5011315;28;20205;-54
2021/12/09 13:27:28;;;;;;;2.97;1.90;;;18.90;40.80;;;;;;5011357;28;20197;-54
2021/12/09 13:35:39;;;;;;;2.45;2.00;;;18.90;40.90;;;;;;5071511;28;20190;-55
2021/12/09 13:38:33;;;;;;;3.85;2.55;;;18.90;40.70;;;;;;5071676;28;20195;-55